sensor_id;sensor_type;location;lat;lon;timestamp;pressure;altitude;pressure_sealevel;temperature;humidity
30598;BME280;17365;48.878;8.334;2023-05-23T00:00:10;99919.47;;;19.55;86.37
30598;BME280;17365;48.878;8.334;2023-05-23T00:02:36;99914.03;;;19.61;85.89
30598;BME280;17365;48.878;8.334;2023-05-23T00:05:01;99909.44;;;19.66;86.08
30598;BME280;17365;48.878;8.334;2023-05-23T00:07:27;99909.84;;;19.55;86.38
30598;BME280;17365;48.878;8.334;2023-05-23T00:09:52;99906.16;;;19.59;86.60
30598;BME280;17365;48.878;8.334;2023-05-23T00:12:17;99907.53;;;19.69;85.77
30598;BME280;17365;48.878;8.334;2023-05-23T00:14:43;99902.50;;;19.63;86.56
30598;BME280;17365;48.878;8.334;2023-05-23T00:17:09;99904.78;;;19.49;87.85
30598;BME280;17365;48.878;8.334;2023-05-23T00:19:34;99907.53;;;19.23;90.37
30598;BME280;17365;48.878;8.334;2023-05-23T00:22:00;99915.38;;;18.99;92.14
30598;BME280;17365;48.878;8.334;2023-05-23T00:24:25;99920.66;;;18.99;91.81
30598;BME280;17365;48.878;8.334;2023-05-23T00:26:51;99916.56;;;19.39;88.57
30598;BME280;17365;48.878;8.334;2023-05-23T00:29:16;99920.59;;;19.24;89.23
30598;BME280;17365;48.878;8.334;2023-05-23T00:31:42;99917.81;;;19.05;90.72
30598;BME280;17365;48.878;8.334;2023-05-23T00:34:10;99925.13;;;19.44;87.90
30598;BME280;17365;48.878;8.334;2023-05-23T00:36:35;99928.28;;;19.07;90.26
30598;BME280;17365;48.878;8.334;2023-05-23T00:39:02;99924.78;;;19.06;90.83
30598;BME280;17365;48.878;8.334;2023-05-23T00:41:27;99917.97;;;19.24;88.92
30598;BME280;17365;48.878;8.334;2023-05-23T00:43:54;99919.72;;;19.48;87.39
30598;BME280;17365;48.878;8.334;2023-05-23T00:46:20;99918.84;;;19.25;88.98
30598;BME280;17365;48.878;8.334;2023-05-23T00:48:45;99922.28;;;19.27;89.29
30598;BME280;17365;48.878;8.334;2023-05-23T00:51:11;99917.09;;;19.00;91.78
30598;BME280;17365;48.878;8.334;2023-05-23T00:53:37;99919.53;;;18.81;92.99
30598;BME280;17365;48.878;8.334;2023-05-23T00:56:02;99917.88;;;19.27;90.02
30598;BME280;17365;48.878;8.334;2023-05-23T00:58:27;99924.00;;;19.28;90.09
30598;BME280;17365;48.878;8.334;2023-05-23T01:00:52;99932.41;;;18.89;92.47
30598;BME280;17365;48.878;8.334;2023-05-23T01:03:18;99933.75;;;18.49;96.02
30598;BME280;17365;48.878;8.334;2023-05-23T01:05:44;99942.44;;;18.78;94.16
30598;BME280;17365;48.878;8.334;2023-05-23T01:08:09;99938.13;;;19.00;92.31
30598;BME280;17365;48.878;8.334;2023-05-23T01:10:35;99943.09;;;19.33;89.89
30598;BME280;17365;48.878;8.334;2023-05-23T01:20:55;99933.94;;;19.19;90.58
30598;BME280;17365;48.878;8.334;2023-05-23T01:28:31;99924.63;;;19.34;89.93
30598;BME280;17365;48.878;8.334;2023-05-23T01:30:57;99927.25;;;19.34;90.23
30598;BME280;17365;48.878;8.334;2023-05-23T01:33:25;99925.13;;;19.20;90.45
30598;BME280;17365;48.878;8.334;2023-05-23T01:35:51;99929.81;;;19.12;91.79
30598;BME280;17365;48.878;8.334;2023-05-23T01:38:17;99931.88;;;19.04;92.06
30598;BME280;17365;48.878;8.334;2023-05-23T01:40:42;99925.59;;;19.32;90.23
30598;BME280;17365;48.878;8.334;2023-05-23T01:43:07;99934.19;;;19.12;91.75
30598;BME280;17365;48.878;8.334;2023-05-23T01:45:33;99928.84;;;18.65;95.22
30598;BME280;17365;48.878;8.334;2023-05-23T01:47:59;99936.16;;;18.55;96.08
30598;BME280;17365;48.878;8.334;2023-05-23T01:50:25;99941.06;;;18.66;95.30
30598;BME280;17365;48.878;8.334;2023-05-23T01:52:50;99936.31;;;18.51;96.43
30598;BME280;17365;48.878;8.334;2023-05-23T01:55:18;99946.03;;;18.75;94.71
30598;BME280;17365;48.878;8.334;2023-05-23T01:57:47;99943.63;;;18.94;93.41
30598;BME280;17365;48.878;8.334;2023-05-23T02:00:14;99945.56;;;18.62;94.96
30598;BME280;17365;48.878;8.334;2023-05-23T02:02:39;99945.28;;;18.72;95.31
30598;BME280;17365;48.878;8.334;2023-05-23T02:05:05;99947.78;;;18.75;94.69
30598;BME280;17365;48.878;8.334;2023-05-23T02:07:30;99949.63;;;18.45;96.57
30598;BME280;17365;48.878;8.334;2023-05-23T02:09:55;99950.78;;;18.64;94.87
30598;BME280;17365;48.878;8.334;2023-05-23T02:12:20;99956.03;;;18.64;94.76
30598;BME280;17365;48.878;8.334;2023-05-23T02:14:46;99961.63;;;18.53;95.87
30598;BME280;17365;48.878;8.334;2023-05-23T02:17:11;99959.28;;;18.18;97.65
30598;BME280;17365;48.878;8.334;2023-05-23T02:19:36;99956.56;;;18.21;98.03
30598;BME280;17365;48.878;8.334;2023-05-23T02:22:01;99951.47;;;18.43;96.89
30598;BME280;17365;48.878;8.334;2023-05-23T02:24:27;99956.59;;;18.74;94.72
30598;BME280;17365;48.878;8.334;2023-05-23T02:26:52;99955.13;;;18.92;93.17
30598;BME280;17365;48.878;8.334;2023-05-23T02:29:17;99954.63;;;19.05;92.67
30598;BME280;17365;48.878;8.334;2023-05-23T02:31:43;99956.81;;;18.93;93.78
30598;BME280;17365;48.878;8.334;2023-05-23T02:34:08;99964.75;;;18.91;94.23
30598;BME280;17365;48.878;8.334;2023-05-23T02:36:33;99953.84;;;18.77;95.06
30598;BME280;17365;48.878;8.334;2023-05-23T02:39:01;99958.03;;;19.07;93.45
30598;BME280;17365;48.878;8.334;2023-05-23T02:41:26;99964.25;;;18.80;95.11
30598;BME280;17365;48.878;8.334;2023-05-23T02:43:51;99975.50;;;18.57;96.97
30598;BME280;17365;48.878;8.334;2023-05-23T02:46:16;99968.50;;;18.84;95.33
30598;BME280;17365;48.878;8.334;2023-05-23T02:48:41;99969.69;;;19.00;93.92
30598;BME280;17365;48.878;8.334;2023-05-23T02:51:07;99966.56;;;19.14;92.90
30598;BME280;17365;48.878;8.334;2023-05-23T02:53:32;99971.50;;;18.98;93.85
30598;BME280;17365;48.878;8.334;2023-05-23T02:55:57;99975.28;;;19.16;92.85
30598;BME280;17365;48.878;8.334;2023-05-23T02:58:22;99968.69;;;19.04;93.90
30598;BME280;17365;48.878;8.334;2023-05-23T03:00:48;99971.31;;;19.04;93.88
30598;BME280;17365;48.878;8.334;2023-05-23T03:03:13;99976.66;;;19.01;94.20
30598;BME280;17365;48.878;8.334;2023-05-23T03:05:38;99978.09;;;19.10;93.25
30598;BME280;17365;48.878;8.334;2023-05-23T03:08:03;99969.19;;;19.14;93.16
30598;BME280;17365;48.878;8.334;2023-05-23T03:10:29;99975.41;;;19.11;93.22
30598;BME280;17365;48.878;8.334;2023-05-23T03:12:54;99971.38;;;19.03;93.94
30598;BME280;17365;48.878;8.334;2023-05-23T03:15:19;99974.03;;;19.01;93.12
30598;BME280;17365;48.878;8.334;2023-05-23T03:17:45;99973.03;;;18.80;95.69
30598;BME280;17365;48.878;8.334;2023-05-23T03:20:10;99976.34;;;18.85;95.32
30598;BME280;17365;48.878;8.334;2023-05-23T03:22:35;99969.75;;;18.99;94.33
30598;BME280;17365;48.878;8.334;2023-05-23T03:25:00;99979.56;;;19.18;92.54
30598;BME280;17365;48.878;8.334;2023-05-23T03:27:26;99983.91;;;19.19;92.75
30598;BME280;17365;48.878;8.334;2023-05-23T03:29:51;99985.41;;;19.02;93.47
30598;BME280;17365;48.878;8.334;2023-05-23T03:32:16;99983.38;;;18.85;94.43
30598;BME280;17365;48.878;8.334;2023-05-23T03:34:41;99988.50;;;19.13;92.67
30598;BME280;17365;48.878;8.334;2023-05-23T03:37:06;99991.47;;;19.29;91.69
30598;BME280;17365;48.878;8.334;2023-05-23T03:39:32;99988.03;;;19.27;91.33
30598;BME280;17365;48.878;8.334;2023-05-23T03:41:57;99987.81;;;19.33;91.00
30598;BME280;17365;48.878;8.334;2023-05-23T03:44:22;99986.91;;;19.34;90.74
30598;BME280;17365;48.878;8.334;2023-05-23T03:46:47;99992.28;;;19.31;91.23
30598;BME280;17365;48.878;8.334;2023-05-23T03:49:12;99999.50;;;18.99;93.78
30598;BME280;17365;48.878;8.334;2023-05-23T03:51:38;100004.16;;;18.91;94.33
30598;BME280;17365;48.878;8.334;2023-05-23T03:54:03;100006.50;;;19.00;93.47
30598;BME280;17365;48.878;8.334;2023-05-23T03:56:28;100003.38;;;19.14;92.97
30598;BME280;17365;48.878;8.334;2023-05-23T03:58:53;99999.09;;;19.11;93.11
30598;BME280;17365;48.878;8.334;2023-05-23T04:01:18;99999.63;;;18.96;93.33
30598;BME280;17365;48.878;8.334;2023-05-23T04:03:44;99997.97;;;18.94;94.24
30598;BME280;17365;48.878;8.334;2023-05-23T04:06:10;100010.31;;;18.92;93.66
30598;BME280;17365;48.878;8.334;2023-05-23T04:08:35;100006.22;;;19.08;93.10
30598;BME280;17365;48.878;8.334;2023-05-23T04:11:00;100012.78;;;18.42;96.88
30598;BME280;17365;48.878;8.334;2023-05-23T04:13:26;100013.22;;;18.28;97.89
30598;BME280;17365;48.878;8.334;2023-05-23T04:15:51;100012.38;;;18.54;96.82
30598;BME280;17365;48.878;8.334;2023-05-23T04:18:16;100017.22;;;18.40;97.20
30598;BME280;17365;48.878;8.334;2023-05-23T04:20:41;100016.09;;;18.20;98.48
30598;BME280;17365;48.878;8.334;2023-05-23T04:23:07;100020.31;;;18.52;96.86
30598;BME280;17365;48.878;8.334;2023-05-23T04:25:32;100015.19;;;18.49;96.91
30598;BME280;17365;48.878;8.334;2023-05-23T04:27:58;100017.16;;;18.71;94.97
30598;BME280;17365;48.878;8.334;2023-05-23T04:30:23;100015.81;;;18.57;95.50
30598;BME280;17365;48.878;8.334;2023-05-23T04:32:48;100020.63;;;18.43;96.15
30598;BME280;17365;48.878;8.334;2023-05-23T04:35:14;100022.03;;;18.81;94.02
30598;BME280;17365;48.878;8.334;2023-05-23T04:37:39;100025.06;;;18.96;92.95
30598;BME280;17365;48.878;8.334;2023-05-23T04:40:05;100027.13;;;18.86;93.14
30598;BME280;17365;48.878;8.334;2023-05-23T04:42:31;100035.69;;;18.93;92.59
30598;BME280;17365;48.878;8.334;2023-05-23T04:44:57;100030.09;;;19.02;92.31
30598;BME280;17365;48.878;8.334;2023-05-23T04:47:22;100029.09;;;19.06;91.62
30598;BME280;17365;48.878;8.334;2023-05-23T04:49:48;100038.72;;;18.80;92.74
30598;BME280;17365;48.878;8.334;2023-05-23T04:52:14;100043.59;;;18.91;91.75
30598;BME280;17365;48.878;8.334;2023-05-23T04:54:43;100045.94;;;18.74;91.03
30598;BME280;17365;48.878;8.334;2023-05-23T04:57:08;100048.84;;;18.37;92.31
30598;BME280;17365;48.878;8.334;2023-05-23T04:59:34;100043.28;;;18.47;92.24
30598;BME280;17365;48.878;8.334;2023-05-23T05:01:59;100051.84;;;18.52;90.28
30598;BME280;17365;48.878;8.334;2023-05-23T05:04:24;100056.28;;;18.22;90.71
30598;BME280;17365;48.878;8.334;2023-05-23T05:06:50;100048.69;;;18.41;91.40
30598;BME280;17365;48.878;8.334;2023-05-23T05:09:16;100059.56;;;18.57;90.33
30598;BME280;17365;48.878;8.334;2023-05-23T05:11:42;100056.69;;;18.66;88.34
30598;BME280;17365;48.878;8.334;2023-05-23T05:14:07;100052.72;;;18.53;89.60
30598;BME280;17365;48.878;8.334;2023-05-23T05:16:32;100058.81;;;18.53;90.77
30598;BME280;17365;48.878;8.334;2023-05-23T05:18:57;100059.25;;;18.96;86.78
30598;BME280;17365;48.878;8.334;2023-05-23T05:21:22;100058.59;;;19.14;85.73
30598;BME280;17365;48.878;8.334;2023-05-23T05:23:47;100054.38;;;19.35;83.82
30598;BME280;17365;48.878;8.334;2023-05-23T05:26:13;100059.69;;;19.08;85.07
30598;BME280;17365;48.878;8.334;2023-05-23T05:28:38;100053.75;;;19.02;84.23
30598;BME280;17365;48.878;8.334;2023-05-23T05:31:03;100063.53;;;19.23;84.42
30598;BME280;17365;48.878;8.334;2023-05-23T05:33:29;100069.88;;;18.91;84.83
30598;BME280;17365;48.878;8.334;2023-05-23T05:35:59;100058.41;;;18.67;87.24
30598;BME280;17365;48.878;8.334;2023-05-23T05:38:25;100065.78;;;19.09;85.77
30598;BME280;17365;48.878;8.334;2023-05-23T05:40:50;100060.16;;;19.44;83.46
30598;BME280;17365;48.878;8.334;2023-05-23T05:43:15;100068.03;;;18.95;83.92
30598;BME280;17365;48.878;8.334;2023-05-23T05:45:41;100070.75;;;19.18;84.50
30598;BME280;17365;48.878;8.334;2023-05-23T05:48:06;100075.63;;;19.04;85.39
30598;BME280;17365;48.878;8.334;2023-05-23T05:50:32;100075.25;;;19.14;84.25
30598;BME280;17365;48.878;8.334;2023-05-23T05:52:57;100085.78;;;19.39;82.02
30598;BME280;17365;48.878;8.334;2023-05-23T05:55:22;100085.63;;;19.19;80.96
30598;BME280;17365;48.878;8.334;2023-05-23T05:57:47;100082.22;;;18.89;80.00
30598;BME280;17365;48.878;8.334;2023-05-23T06:00:13;100086.38;;;18.96;77.26
30598;BME280;17365;48.878;8.334;2023-05-23T06:02:43;100091.13;;;18.85;77.29
30598;BME280;17365;48.878;8.334;2023-05-23T06:05:09;100093.59;;;18.89;75.26
30598;BME280;17365;48.878;8.334;2023-05-23T06:07:36;100084.94;;;19.12;75.60
30598;BME280;17365;48.878;8.334;2023-05-23T06:10:02;100092.34;;;18.75;76.09
30598;BME280;17365;48.878;8.334;2023-05-23T06:12:27;100092.34;;;18.75;75.81
30598;BME280;17365;48.878;8.334;2023-05-23T06:14:52;100094.38;;;18.93;76.33
30598;BME280;17365;48.878;8.334;2023-05-23T06:17:18;100092.41;;;19.25;74.76
30598;BME280;17365;48.878;8.334;2023-05-23T06:19:43;100104.44;;;19.07;74.40
30598;BME280;17365;48.878;8.334;2023-05-23T06:22:08;100104.63;;;19.01;74.62
30598;BME280;17365;48.878;8.334;2023-05-23T06:24:33;100114.78;;;19.11;75.14
30598;BME280;17365;48.878;8.334;2023-05-23T06:26:59;100111.25;;;19.39;74.13
30598;BME280;17365;48.878;8.334;2023-05-23T06:29:24;100111.31;;;18.55;74.28
30598;BME280;17365;48.878;8.334;2023-05-23T06:31:49;100117.78;;;19.01;74.04
30598;BME280;17365;48.878;8.334;2023-05-23T06:34:15;100123.94;;;18.73;74.43
30598;BME280;17365;48.878;8.334;2023-05-23T06:36:40;100125.16;;;18.89;74.67
30598;BME280;17365;48.878;8.334;2023-05-23T06:39:06;100123.19;;;18.96;74.20
30598;BME280;17365;48.878;8.334;2023-05-23T06:41:33;100127.34;;;18.75;74.01
30598;BME280;17365;48.878;8.334;2023-05-23T06:43:59;100123.19;;;18.96;73.65
30598;BME280;17365;48.878;8.334;2023-05-23T06:46:24;100139.41;;;19.09;73.09
30598;BME280;17365;48.878;8.334;2023-05-23T06:48:49;100144.84;;;19.04;73.06
30598;BME280;17365;48.878;8.334;2023-05-23T06:51:15;100160.19;;;18.60;74.46
30598;BME280;17365;48.878;8.334;2023-05-23T06:53:40;100156.22;;;18.18;76.68
30598;BME280;17365;48.878;8.334;2023-05-23T06:56:05;100163.41;;;18.41;75.00
30598;BME280;17365;48.878;8.334;2023-05-23T06:58:30;100170.13;;;18.51;75.05
30598;BME280;17365;48.878;8.334;2023-05-23T07:00:55;100169.50;;;18.72;74.44
30598;BME280;17365;48.878;8.334;2023-05-23T07:03:20;100179.63;;;18.55;74.23
30598;BME280;17365;48.878;8.334;2023-05-23T07:05:46;100175.88;;;18.93;74.20
30598;BME280;17365;48.878;8.334;2023-05-23T07:08:11;100181.47;;;18.22;76.59
30598;BME280;17365;48.878;8.334;2023-05-23T07:10:37;100184.53;;;18.07;76.32
30598;BME280;17365;48.878;8.334;2023-05-23T07:13:05;100186.56;;;18.28;75.04
30598;BME280;17365;48.878;8.334;2023-05-23T07:15:30;100196.81;;;18.67;74.22
30598;BME280;17365;48.878;8.334;2023-05-23T07:17:55;100185.41;;;18.68;73.64
30598;BME280;17365;48.878;8.334;2023-05-23T07:20:20;100182.69;;;18.99;71.76
30598;BME280;17365;48.878;8.334;2023-05-23T07:22:46;100177.25;;;19.58;68.12
30598;BME280;17365;48.878;8.334;2023-05-23T07:25:11;100185.03;;;19.87;66.38
30598;BME280;17365;48.878;8.334;2023-05-23T07:27:36;100189.91;;;19.46;66.21
30598;BME280;17365;48.878;8.334;2023-05-23T07:30:01;100183.56;;;19.78;66.63
30598;BME280;17365;48.878;8.334;2023-05-23T07:32:27;100190.16;;;19.39;67.07
30598;BME280;17365;48.878;8.334;2023-05-23T07:34:52;100194.63;;;19.63;67.04
30598;BME280;17365;48.878;8.334;2023-05-23T07:37:17;100189.56;;;19.31;68.07
30598;BME280;17365;48.878;8.334;2023-05-23T07:39:42;100199.41;;;19.24;67.99
30598;BME280;17365;48.878;8.334;2023-05-23T07:42:07;100201.91;;;19.29;66.63
30598;BME280;17365;48.878;8.334;2023-05-23T07:44:33;100196.97;;;19.72;65.91
30598;BME280;17365;48.878;8.334;2023-05-23T07:46:58;100196.22;;;19.41;66.43
30598;BME280;17365;48.878;8.334;2023-05-23T07:49:23;100189.75;;;19.51;65.46
30598;BME280;17365;48.878;8.334;2023-05-23T07:51:48;100205.97;;;19.65;64.15
30598;BME280;17365;48.878;8.334;2023-05-23T07:54:13;100206.34;;;19.27;64.10
30598;BME280;17365;48.878;8.334;2023-05-23T07:56:39;100207.91;;;19.32;62.98
30598;BME280;17365;48.878;8.334;2023-05-23T07:59:04;100202.59;;;19.07;62.87
30598;BME280;17365;48.878;8.334;2023-05-23T08:01:29;100204.81;;;19.19;63.92
30598;BME280;17365;48.878;8.334;2023-05-23T08:03:55;100202.19;;;19.19;64.14
30598;BME280;17365;48.878;8.334;2023-05-23T08:06:20;100213.91;;;19.64;63.02
30598;BME280;17365;48.878;8.334;2023-05-23T08:08:45;100211.53;;;20.08;60.87
30598;BME280;17365;48.878;8.334;2023-05-23T08:11:10;100212.59;;;19.23;63.35
30598;BME280;17365;48.878;8.334;2023-05-23T08:13:36;100213.19;;;18.76;64.59
30598;BME280;17365;48.878;8.334;2023-05-23T08:16:01;100213.47;;;19.23;62.91
30598;BME280;17365;48.878;8.334;2023-05-23T08:18:30;100216.75;;;19.58;62.26
30598;BME280;17365;48.878;8.334;2023-05-23T08:21:06;100223.72;;;19.85;61.18
30598;BME280;17365;48.878;8.334;2023-05-23T08:23:39;100223.91;;;20.04;61.10
30598;BME280;17365;48.878;8.334;2023-05-23T08:26:15;100212.31;;;20.10;60.92
30598;BME280;17365;48.878;8.334;2023-05-23T08:28:40;100219.28;;;19.61;61.62
30598;BME280;17365;48.878;8.334;2023-05-23T08:31:05;100224.97;;;19.47;62.84
30598;BME280;17365;48.878;8.334;2023-05-23T08:33:31;100221.88;;;19.62;62.54
30598;BME280;17365;48.878;8.334;2023-05-23T08:35:56;100223.06;;;19.78;62.13
30598;BME280;17365;48.878;8.334;2023-05-23T08:38:21;100231.13;;;19.46;62.85
30598;BME280;17365;48.878;8.334;2023-05-23T08:40:50;100235.25;;;19.55;62.95
30598;BME280;17365;48.878;8.334;2023-05-23T08:43:16;100234.38;;;19.54;62.03
30598;BME280;17365;48.878;8.334;2023-05-23T08:45:41;100222.75;;;19.88;61.81
30598;BME280;17365;48.878;8.334;2023-05-23T08:48:07;100223.06;;;19.78;61.28
30598;BME280;17365;48.878;8.334;2023-05-23T08:50:34;100237.53;;;18.83;64.23
30598;BME280;17365;48.878;8.334;2023-05-23T08:53:01;100238.25;;;19.16;63.92
30598;BME280;17365;48.878;8.334;2023-05-23T08:55:28;100240.44;;;19.02;64.52
30598;BME280;17365;48.878;8.334;2023-05-23T08:57:54;100244.75;;;18.75;65.41
30598;BME280;17365;48.878;8.334;2023-05-23T09:00:20;100246.13;;;18.57;66.55
30598;BME280;17365;48.878;8.334;2023-05-23T09:02:46;100251.69;;;18.77;65.83
30598;BME280;17365;48.878;8.334;2023-05-23T09:05:11;100244.84;;;19.29;64.84
30598;BME280;17365;48.878;8.334;2023-05-23T09:07:38;100245.81;;;19.27;65.19
30598;BME280;17365;48.878;8.334;2023-05-23T09:10:04;100253.88;;;19.20;64.78
30598;BME280;17365;48.878;8.334;2023-05-23T09:12:30;100262.69;;;18.92;64.65
30598;BME280;17365;48.878;8.334;2023-05-23T09:14:55;100256.66;;;19.16;64.61
30598;BME280;17365;48.878;8.334;2023-05-23T09:17:21;100260.31;;;19.66;62.69
30598;BME280;17365;48.878;8.334;2023-05-23T09:19:47;100248.19;;;19.34;63.28
30598;BME280;17365;48.878;8.334;2023-05-23T09:22:13;100259.50;;;19.36;63.17
30598;BME280;17365;48.878;8.334;2023-05-23T09:24:38;100261.25;;;19.65;61.26
30598;BME280;17365;48.878;8.334;2023-05-23T09:27:05;100262.88;;;19.41;62.28
30598;BME280;17365;48.878;8.334;2023-05-23T09:29:31;100256.72;;;20.20;58.93
30598;BME280;17365;48.878;8.334;2023-05-23T09:32:07;100253.38;;;20.15;57.81
30598;BME280;17365;48.878;8.334;2023-05-23T09:34:34;100244.59;;;20.15;58.53
30598;BME280;17365;48.878;8.334;2023-05-23T09:36:59;100251.09;;;20.06;58.02
30598;BME280;17365;48.878;8.334;2023-05-23T09:39:24;100242.06;;;19.62;59.37
30598;BME280;17365;48.878;8.334;2023-05-23T09:41:50;100243.16;;;19.81;59.07
30598;BME280;17365;48.878;8.334;2023-05-23T09:44:17;100245.03;;;19.77;59.16
30598;BME280;17365;48.878;8.334;2023-05-23T09:46:46;100251.13;;;20.29;58.62
30598;BME280;17365;48.878;8.334;2023-05-23T09:49:16;100250.94;;;20.59;57.02
30598;BME280;17365;48.878;8.334;2023-05-23T09:51:42;100253.88;;;20.51;56.94
30598;BME280;17365;48.878;8.334;2023-05-23T09:54:07;100259.00;;;20.06;58.66
30598;BME280;17365;48.878;8.334;2023-05-23T09:56:33;100246.56;;;19.85;58.00
30598;BME280;17365;48.878;8.334;2023-05-23T09:58:59;100254.94;;;19.69;59.48
30598;BME280;17365;48.878;8.334;2023-05-23T10:01:25;100259.56;;;19.63;57.85
30598;BME280;17365;48.878;8.334;2023-05-23T10:03:51;100261.28;;;19.90;57.99
30598;BME280;17365;48.878;8.334;2023-05-23T10:06:25;100262.84;;;19.69;58.64
30598;BME280;17365;48.878;8.334;2023-05-23T10:08:54;100259.31;;;20.70;56.10
30598;BME280;17365;48.878;8.334;2023-05-23T10:13:59;100264.69;;;20.19;56.87
30598;BME280;17365;48.878;8.334;2023-05-23T10:16:31;100256.06;;;20.14;57.15
30598;BME280;17365;48.878;8.334;2023-05-23T10:18:59;100264.88;;;19.88;57.50
30598;BME280;17365;48.878;8.334;2023-05-23T10:21:32;100259.09;;;19.76;56.66
30598;BME280;17365;48.878;8.334;2023-05-23T10:24:00;100254.00;;;19.72;57.63
30598;BME280;17365;48.878;8.334;2023-05-23T10:26:26;100269.13;;;20.42;56.43
30598;BME280;17365;48.878;8.334;2023-05-23T10:28:51;100262.50;;;21.02;53.34
30598;BME280;17365;48.878;8.334;2023-05-23T10:31:16;100261.94;;;20.93;53.14
30598;BME280;17365;48.878;8.334;2023-05-23T10:33:42;100258.69;;;21.32;52.90
30598;BME280;17365;48.878;8.334;2023-05-23T10:36:21;100272.63;;;20.67;54.07
30598;BME280;17365;48.878;8.334;2023-05-23T10:41:21;100260.91;;;20.26;55.85
30598;BME280;17365;48.878;8.334;2023-05-23T10:43:49;100259.84;;;20.06;56.64
30598;BME280;17365;48.878;8.334;2023-05-23T10:46:18;100255.19;;;20.38;55.77
30598;BME280;17365;48.878;8.334;2023-05-23T10:48:44;100260.81;;;20.77;53.92
30598;BME280;17365;48.878;8.334;2023-05-23T10:51:10;100256.78;;;20.44;53.33
30598;BME280;17365;48.878;8.334;2023-05-23T10:53:42;100268.47;;;20.35;54.23
30598;BME280;17365;48.878;8.334;2023-05-23T10:56:08;100262.78;;;20.22;54.56
30598;BME280;17365;48.878;8.334;2023-05-23T10:58:37;100255.41;;;20.80;53.78
30598;BME280;17365;48.878;8.334;2023-05-23T11:01:07;100261.00;;;20.94;53.53
30598;BME280;17365;48.878;8.334;2023-05-23T11:03:51;100264.63;;;21.59;51.11
30598;BME280;17365;48.878;8.334;2023-05-23T11:09:23;100257.22;;;21.02;51.04
30598;BME280;17365;48.878;8.334;2023-05-23T11:14:13;100253.59;;;21.92;48.80
30598;BME280;17365;48.878;8.334;2023-05-23T11:16:39;100259.19;;;21.84;49.01
30598;BME280;17365;48.878;8.334;2023-05-23T11:21:47;100251.47;;;21.14;50.65
30598;BME280;17365;48.878;8.334;2023-05-23T11:24:13;100257.66;;;21.36;50.40
30598;BME280;17365;48.878;8.334;2023-05-23T11:26:38;100252.56;;;21.74;48.22
30598;BME280;17365;48.878;8.334;2023-05-23T11:29:07;100249.94;;;21.32;49.46
30598;BME280;17365;48.878;8.334;2023-05-23T11:31:36;100242.81;;;21.76;49.05
30598;BME280;17365;48.878;8.334;2023-05-23T11:34:01;100243.78;;;21.31;49.25
30598;BME280;17365;48.878;8.334;2023-05-23T11:36:26;100243.50;;;20.47;50.72
30598;BME280;17365;48.878;8.334;2023-05-23T11:38:51;100240.56;;;20.78;52.05
30598;BME280;17365;48.878;8.334;2023-05-23T11:41:17;100241.59;;;20.25;52.90
30598;BME280;17365;48.878;8.334;2023-05-23T11:43:52;100239.63;;;20.07;54.04
30598;BME280;17365;48.878;8.334;2023-05-23T11:46:17;100234.72;;;20.46;53.67
30598;BME280;17365;48.878;8.334;2023-05-23T11:48:45;100238.78;;;20.78;53.33
30598;BME280;17365;48.878;8.334;2023-05-23T11:51:11;100246.66;;;20.80;53.34
30598;BME280;17365;48.878;8.334;2023-05-23T11:53:36;100244.53;;;20.89;52.89
30598;BME280;17365;48.878;8.334;2023-05-23T11:56:02;100246.84;;;20.52;53.25
30598;BME280;17365;48.878;8.334;2023-05-23T11:58:28;100243.94;;;20.58;52.98
30598;BME280;17365;48.878;8.334;2023-05-23T12:01:00;100232.47;;;21.28;53.00
30598;BME280;17365;48.878;8.334;2023-05-23T12:03:27;100239.84;;;20.51;53.37
30598;BME280;17365;48.878;8.334;2023-05-23T12:05:53;100236.06;;;21.25;51.75
30598;BME280;17365;48.878;8.334;2023-05-23T12:08:18;100236.34;;;21.19;51.93
30598;BME280;17365;48.878;8.334;2023-05-23T12:10:50;100235.09;;;21.92;49.79
30598;BME280;17365;48.878;8.334;2023-05-23T12:13:16;100220.38;;;21.86;49.18
30598;BME280;17365;48.878;8.334;2023-05-23T12:15:42;100225.22;;;21.11;51.21
30598;BME280;17365;48.878;8.334;2023-05-23T12:18:08;100225.91;;;20.71;53.45
30598;BME280;17365;48.878;8.334;2023-05-23T12:20:33;100230.59;;;20.14;55.54
30598;BME280;17365;48.878;8.334;2023-05-23T12:23:03;100225.16;;;20.19;55.69
30598;BME280;17365;48.878;8.334;2023-05-23T12:25:28;100233.41;;;20.58;54.66
30598;BME280;17365;48.878;8.334;2023-05-23T12:27:54;100227.63;;;20.23;56.78
30598;BME280;17365;48.878;8.334;2023-05-23T12:30:20;100231.13;;;19.99;57.06
30598;BME280;17365;48.878;8.334;2023-05-23T12:32:45;100229.84;;;19.86;58.23
30598;BME280;17365;48.878;8.334;2023-05-23T12:35:12;100230.69;;;20.11;58.01
30598;BME280;17365;48.878;8.334;2023-05-23T12:37:38;100229.84;;;19.86;58.12
30598;BME280;17365;48.878;8.334;2023-05-23T12:40:10;100237.53;;;20.17;57.83
30598;BME280;17365;48.878;8.334;2023-05-23T12:42:48;100235.75;;;20.17;57.67
30598;BME280;17365;48.878;8.334;2023-05-23T12:45:14;100242.75;;;20.43;57.00
30598;BME280;17365;48.878;8.334;2023-05-23T12:47:39;100231.13;;;20.96;55.90
30598;BME280;17365;48.878;8.334;2023-05-23T12:50:05;100231.22;;;20.46;56.39
30598;BME280;17365;48.878;8.334;2023-05-23T12:52:30;100234.28;;;21.04;54.47
30598;BME280;17365;48.878;8.334;2023-05-23T12:54:55;100239.09;;;20.22;54.92
30598;BME280;17365;48.878;8.334;2023-05-23T12:57:21;100226.34;;;20.58;54.31
30598;BME280;17365;48.878;8.334;2023-05-23T12:59:46;100227.41;;;21.00;53.01
30598;BME280;17365;48.878;8.334;2023-05-23T13:02:11;100223.19;;;20.96;53.96
30598;BME280;17365;48.878;8.334;2023-05-23T13:04:36;100228.91;;;21.50;51.24
30598;BME280;17365;48.878;8.334;2023-05-23T13:07:02;100226.41;;;21.47;51.43
30598;BME280;17365;48.878;8.334;2023-05-23T13:09:27;100224.16;;;21.59;51.35
30598;BME280;17365;48.878;8.334;2023-05-23T13:11:52;100224.06;;;21.40;52.33